Time;durP1;ratioP1;P1;durP2;ratioP2;P2;SDS_P1;SDS_P2;PMS_P1;PMS_P2;Temp;Humidity;BMP_temperature;BMP_pressure;BME280_temperature;BME280_humidity;BME280_pressure;Samples;Min_cycle;Max_cycle;Signal;HPM_P1;HPM_P2
2022/07/15 00:01:22;;;;;;;6.20;1.10;;;;;;;12.41;89.75;99389.09;104900;1272;60540;-75
2022/07/15 00:04:10;;;;;;;5.30;1.10;;;;;;;12.39;90.01;99386.12;104991;1271;61940;-75
2022/07/15 00:06:59;;;;;;;5.50;1.60;;;;;;;12.36;90.10;99383.23;104990;1271;73872;-75
2022/07/15 00:12:59;;;;;;;7.40;1.30;;;;;;;12.29;90.35;99378.95;105044;1271;72670;-76
2022/07/15 00:15:47;;;;;;;6.10;1.40;;;;;;;12.25;90.72;99376.48;105506;1271;60485;-74
2022/07/15 00:18:35;;;;;;;7.00;1.40;;;;;;;12.20;91.00;99374.42;105293;1271;61425;-75
2022/07/15 00:21:24;;;;;;;5.60;1.20;;;;;;;12.17;90.65;99374.56;104993;1271;75681;-75
2022/07/15 00:24:12;;;;;;;5.60;1.10;;;;;;;12.14;90.71;99375.23;105017;1271;67972;-77
2022/07/15 00:27:02;;;;;;;4.20;1.00;;;;;;;12.06;90.86;99368.10;104699;1275;72883;-76
2022/07/15 00:29:50;;;;;;;5.60;1.20;;;;;;;12.05;90.63;99378.14;104805;1275;60525;-76
2022/07/15 00:32:38;;;;;;;6.20;1.40;;;;;;;12.03;90.70;99384.09;105157;1274;60659;-76
2022/07/15 00:35:29;;;;;;;6.20;1.20;;;;;;;12.00;91.25;99389.11;104953;1274;75499;-75
2022/07/15 00:38:17;;;;;;;6.80;1.40;;;;;;;11.98;91.14;99386.33;105076;1274;67812;-74
2022/07/15 00:41:05;;;;;;;5.40;1.10;;;;;;;11.97;91.11;99393.73;105324;1274;73993;-76
2022/07/15 00:43:53;;;;;;;8.30;1.70;;;;;;;11.95;91.50;99398.82;104896;1274;60475;-76
2022/07/15 00:46:41;;;;;;;6.20;1.30;;;;;;;11.95;91.54;99399.77;104898;1274;60407;-74
2022/07/15 00:49:29;;;;;;;5.80;1.20;;;;;;;11.94;91.65;99404.62;105104;1274;75650;-76
2022/07/15 00:52:20;;;;;;;6.50;1.30;;;;;;;11.95;91.71;99408.41;104860;1274;69757;-76
2022/07/15 00:55:12;;;;;;;6.10;1.20;;;;;;;11.99;91.77;99408.42;105017;1274;74268;-75
2022/07/15 00:58:04;;;;;;;5.50;1.10;;;;;;;12.03;92.42;99413.39;105106;1271;60515;-76
2022/07/15 01:00:56;;;;;;;6.60;1.30;;;;;;;12.08;91.90;99413.97;105113;1274;60555;-75
2022/07/15 01:03:48;;;;;;;5.50;1.00;;;;;;;12.14;91.69;99415.06;104840;1271;75361;-76
2022/07/15 01:06:36;;;;;;;9.40;1.30;;;;;;;12.16;91.83;99411.63;104890;1271;68811;-77
2022/07/15 01:09:25;;;;;;;5.30;1.10;;;;;;;12.18;91.45;99412.73;105007;1272;74262;-76
2022/07/15 01:12:13;;;;;;;8.60;2.10;;;;;;;12.19;92.12;99408.83;104942;1271;60600;-76
2022/07/15 01:15:01;;;;;;;5.70;1.10;;;;;;;12.22;91.71;99406.96;105198;1271;61148;-76
2022/07/15 01:17:51;;;;;;;5.90;1.10;;;;;;;12.25;91.92;99404.73;105330;1271;72255;-75
2022/07/15 01:20:42;;;;;;;5.60;1.20;;;;;;;12.26;91.77;99402.87;104959;1271;66689;-77
2022/07/15 01:23:30;;;;;;;4.50;1.00;;;;;;;12.26;91.23;99408.70;104850;1271;74386;-77
2022/07/15 01:26:50;;;;;;;7.00;1.00;;;;;;;12.22;91.28;99404.98;105271;1271;60533;-76
2022/07/15 01:29:41;;;;;;;5.60;1.00;;;;;;;12.17;91.72;99399.42;105264;1271;60350;-76
2022/07/15 01:32:29;;;;;;;4.90;1.00;;;;;;;12.11;92.02;99404.59;104860;1271;75480;-75
2022/07/15 01:35:18;;;;;;;4.70;1.00;;;;;;;12.06;92.28;99401.90;105148;1271;66764;-76
2022/07/15 01:38:09;;;;;;;4.30;1.00;;;;;;;12.02;92.27;99400.85;105509;1271;74116;-76
2022/07/15 01:40:58;;;;;;;5.60;1.20;;;;;;;12.01;92.63;99400.29;104992;1271;60443;-75
2022/07/15 01:43:46;;;;;;;4.40;1.00;;;;;;;12.00;92.35;99397.11;105054;1271;60543;-76
2022/07/15 01:46:35;;;;;;;5.20;0.90;;;;;;;11.99;92.56;99396.14;105303;1271;75038;-76
2022/07/15 01:49:26;;;;;;;5.10;1.00;;;;;;;11.99;92.42;99389.29;104940;1271;67827;-75
2022/07/15 01:52:41;;;;;;;6.50;1.20;;;;;;;11.97;92.04;99385.34;105223;1271;71647;-76
2022/07/15 01:55:29;;;;;;;6.00;1.10;;;;;;;11.93;92.11;99380.16;105008;1271;60991;-76
2022/07/15 01:58:19;;;;;;;7.20;1.20;;;;;;;11.90;92.35;99381.17;105024;1271;60485;-75
2022/07/15 02:01:08;;;;;;;3.70;0.80;;;;;;;11.85;92.25;99387.17;104998;1271;73782;-74
2022/07/15 02:03:59;;;;;;;5.00;1.00;;;;;;;11.79;91.96;99386.30;104919;1271;68030;-73
2022/07/15 02:06:49;;;;;;;5.70;1.10;;;;;;;11.72;92.51;99383.73;105178;1271;72641;-75
2022/07/15 02:09:38;;;;;;;5.60;1.00;;;;;;;11.64;92.58;99386.92;104873;1271;60508;-74
2022/07/15 02:12:26;;;;;;;4.80;1.10;;;;;;;11.57;93.38;99383.82;104980;1271;60978;-74
2022/07/15 02:15:16;;;;;;;8.20;1.80;;;;;;;11.52;93.74;99385.92;105082;1271;73990;-73
2022/07/15 02:18:10;;;;;;;5.50;1.00;;;;;;;11.46;94.45;99385.02;105147;1271;67975;-75
2022/07/15 02:20:58;;;;;;;5.50;1.10;;;;;;;11.42;94.55;99389.86;104895;1271;72909;-76
2022/07/15 02:23:48;;;;;;;6.40;1.10;;;;;;;11.39;94.73;99396.64;104997;1271;60367;-77
2022/07/15 02:26:37;;;;;;;4.80;1.10;;;;;;;11.38;94.29;99399.11;105241;1271;61056;-77
2022/07/15 02:29:25;;;;;;;5.70;1.30;;;;;;;11.38;94.94;99406.00;104962;1271;74119;-76
2022/07/15 02:32:13;;;;;;;5.10;1.00;;;;;;;11.39;94.92;99407.64;104928;1271;67773;-75
2022/07/15 02:35:02;;;;;;;7.00;1.40;;;;;;;11.43;95.02;99408.95;104934;1272;72890;-75
2022/07/15 02:37:50;;;;;;;7.00;1.10;;;;;;;11.46;95.01;99409.58;104934;1271;60546;-75
2022/07/15 02:40:40;;;;;;;7.30;1.30;;;;;;;11.49;94.81;99406.41;104965;1272;60507;-73
2022/07/15 02:43:31;;;;;;;5.90;1.10;;;;;;;11.53;94.83;99410.30;104981;1273;74460;-74
2022/07/15 02:46:20;;;;;;;6.10;1.20;;;;;;;11.57;95.05;99410.63;105149;1271;68703;-75
2022/07/15 02:49:09;;;;;;;7.00;1.20;;;;;;;11.62;95.26;99407.27;105266;1271;72949;-74
2022/07/15 02:51:58;;;;;;;5.50;1.20;;;;;;;11.64;95.41;99401.20;104901;1271;60578;-75
2022/07/15 02:54:47;;;;;;;5.10;1.10;;;;;;;11.67;95.41;99402.52;105100;1271;61546;-75
2022/07/15 02:57:37;;;;;;;7.10;1.30;;;;;;;11.69;95.49;99403.25;104855;1274;74108;-74
2022/07/15 03:00:26;;;;;;;5.80;1.30;;;;;;;11.70;95.96;99400.91;105023;1271;68236;-77
2022/07/15 03:03:18;;;;;;;7.60;1.10;;;;;;;11.71;96.41;99404.79;105099;1271;73682;-75
2022/07/15 03:06:07;;;;;;;5.90;1.10;;;;;;;11.69;96.73;99405.65;104871;1271;60575;-74
2022/07/15 03:08:55;;;;;;;8.40;1.30;;;;;;;11.66;96.83;99406.27;104986;1271;60443;-77
2022/07/15 03:11:43;;;;;;;6.20;1.10;;;;;;;11.63;96.90;99402.86;105016;1271;72938;-76
2022/07/15 03:14:34;;;;;;;4.90;0.90;;;;;;;11.60;96.76;99404.02;105018;1271;69689;-75
2022/07/15 03:17:23;;;;;;;8.50;1.40;;;;;;;11.57;97.03;99401.59;104971;1271;73578;-76
2022/07/15 03:20:11;;;;;;;6.00;1.00;;;;;;;11.55;97.06;99402.19;105167;1271;60668;-75
2022/07/15 03:23:05;;;;;;;6.10;1.20;;;;;;;11.53;97.16;99405.20;105035;1271;60416;-76
2022/07/15 03:25:54;;;;;;;7.20;1.30;;;;;;;11.52;96.96;99407.75;105158;1271;74102;-77
2022/07/15 03:28:42;;;;;;;8.90;1.40;;;;;;;11.50;97.36;99404.59;105172;1271;66887;-77
2022/07/15 03:31:30;;;;;;;5.90;1.30;;;;;;;11.48;96.98;99404.55;104892;1272;73219;-76
2022/07/15 03:34:19;;;;;;;6.90;1.20;;;;;;;11.48;97.02;99410.27;105200;1271;60451;-76
2022/07/15 03:37:09;;;;;;;8.00;1.40;;;;;;;11.45;97.27;99412.31;105068;1271;61305;-77
2022/07/15 03:39:57;;;;;;;6.20;1.10;;;;;;;11.46;97.17;99415.08;105058;1271;74720;-74
2022/07/15 03:42:46;;;;;;;5.00;1.20;;;;;;;11.48;97.04;99413.61;105658;1271;67956;-76
2022/07/15 03:45:34;;;;;;;8.30;1.50;;;;;;;11.50;96.81;99421.64;105244;1271;72940;-76
2022/07/15 03:48:23;;;;;;;7.50;1.30;;;;;;;11.52;96.74;99423.94;105126;1271;60564;-75
2022/07/15 03:51:11;;;;;;;5.10;1.20;;;;;;;11.56;96.64;99418.34;105145;1271;60479;-73
2022/07/15 03:54:02;;;;;;;6.80;1.20;;;;;;;11.59;96.31;99415.05;105053;1271;75459;-75
2022/07/15 03:56:50;;;;;;;5.50;1.10;;;;;;;11.62;95.94;99416.87;105067;1270;69327;-76
2022/07/15 03:59:39;;;;;;;7.00;1.20;;;;;;;11.64;95.84;99418.03;105016;1271;72283;-76
2022/07/15 04:02:27;;;;;;;5.70;1.10;;;;;;;11.70;95.87;99426.70;104958;1271;60475;-76
2022/07/15 04:05:19;;;;;;;6.10;1.20;;;;;;;11.85;95.68;99426.62;105097;1271;60541;-75
2022/07/15 04:08:11;;;;;;;7.00;1.30;;;;;;;11.88;94.99;99417.94;105069;1271;74101;-77
2022/07/15 04:11:00;;;;;;;7.30;1.30;;;;;;;11.89;94.58;99416.96;105158;1271;68256;-77
2022/07/15 04:13:48;;;;;;;5.90;1.50;;;;;;;11.92;94.61;99414.51;104906;1273;71576;-78
2022/07/15 04:16:40;;;;;;;5.80;1.30;;;;;;;11.94;94.12;99412.80;105288;1271;60494;-77
2022/07/15 04:19:58;;;;;;;6.20;1.10;;;;;;;12.00;93.63;99418.34;105156;1271;60360;-78
2022/07/15 04:22:49;;;;;;;7.00;1.50;;;;;;;12.07;93.33;99417.67;104986;1271;77510;-78
2022/07/15 04:25:37;;;;;;;4.60;0.90;;;;;;;12.18;92.98;99419.46;104914;1271;67876;-78
2022/07/15 04:28:26;;;;;;;5.20;1.20;;;;;;;12.33;92.35;99416.23;104656;1277;70854;-78
2022/07/15 04:31:14;;;;;;;6.80;1.00;;;;;;;12.41;91.39;99417.91;104634;1276;60577;-78
2022/07/15 04:34:10;;;;;;;5.70;1.20;;;;;;;12.49;90.78;99421.66;104663;1277;60455;-78
2022/07/15 04:37:02;;;;;;;6.60;1.00;;;;;;;12.60;90.28;99421.34;104861;1277;74249;-77
2022/07/15 04:39:51;;;;;;;4.90;1.00;;;;;;;12.73;89.20;99424.48;104904;1276;67851;-78
2022/07/15 04:42:40;;;;;;;5.90;1.00;;;;;;;12.93;88.33;99427.27;104471;1278;71450;-77
2022/07/15 04:45:31;;;;;;;6.30;1.10;;;;;;;13.15;86.57;99426.46;104492;1279;60560;-78
2022/07/15 04:51:27;;;;;;;6.30;1.20;;;;;;;13.93;82.82;99422.70;104572;1277;75855;-77
2022/07/15 04:54:17;;;;;;;4.90;1.00;;;;;;;14.51;80.53;99424.02;104667;1278;66624;-77
2022/07/15 04:57:08;;;;;;;6.30;1.10;;;;;;;15.23;75.88;99418.33;104587;1278;72619;-77
2022/07/15 04:59:56;;;;;;;5.20;1.00;;;;;;;15.86;72.13;99428.06;104961;1274;61330;-77
2022/07/15 05:02:44;;;;;;;8.20;1.30;;;;;;;16.46;69.70;99422.33;104897;1274;60418;-78
2022/07/15 05:05:36;;;;;;;5.80;0.90;;;;;;;17.09;66.68;99426.59;104730;1274;73275;-78
2022/07/15 05:08:24;;;;;;;6.40;1.20;;;;;;;17.64;64.18;99421.48;104812;1274;67770;-78
2022/07/15 05:11:14;;;;;;;7.30;1.00;;;;;;;18.12;61.46;99414.05;104589;1277;74557;-79
2022/07/15 05:14:04;;;;;;;6.20;1.20;;;;;;;18.51;59.67;99412.73;104758;1277;60484;-77
2022/07/15 05:16:52;;;;;;;7.10;1.20;;;;;;;19.06;57.92;99415.12;104688;1277;60650;-77
2022/07/15 05:19:40;;;;;;;8.00;1.00;;;;;;;19.69;56.20;99417.33;104930;1277;72697;-77
2022/07/15 05:22:29;;;;;;;6.20;1.10;;;;;;;20.32;53.33;99419.42;104479;1277;299788;-77
2022/07/15 05:25:17;;;;;;;6.10;1.00;;;;;;;20.77;50.85;99422.27;104932;1276;71473;-74
2022/07/15 05:28:06;;;;;;;6.70;1.30;;;;;;;21.34;49.62;99423.11;104968;1276;60621;-76
2022/07/15 05:30:54;;;;;;;7.90;1.40;;;;;;;21.93;47.84;99415.56;105003;1277;60684;-77
2022/07/15 05:33:43;;;;;;;6.90;1.00;;;;;;;22.54;46.30;99417.16;105256;1276;74208;-78
2022/07/15 05:36:31;;;;;;;6.60;1.00;;;;;;;23.12;44.48;99416.15;104783;1276;66528;-77
2022/07/15 05:39:20;;;;;;;6.50;1.20;;;;;;;23.60;42.48;99416.34;104748;1276;74775;-76
2022/07/15 05:42:08;;;;;;;5.40;1.20;;;;;;;23.97;40.97;99419.75;104951;1271;60555;-75
2022/07/15 05:44:57;;;;;;;7.20;1.00;;;;;;;24.29;40.16;99428.75;105092;1271;61665;-75
2022/07/15 05:47:51;;;;;;;6.10;0.90;;;;;;;24.62;39.36;99427.56;104937;1271;75490;-75
2022/07/15 05:50:42;;;;;;;6.50;1.00;;;;;;;24.66;38.22;99429.04;105211;1271;68383;-76
2022/07/15 05:53:32;;;;;;;12.50;5.00;;;;;;;25.14;38.49;99429.73;105167;1271;71643;-75
2022/07/15 05:56:20;;;;;;;8.00;2.80;;;;;;;25.66;36.64;99431.61;104869;1271;60507;-74
2022/07/15 05:59:09;;;;;;;8.70;1.40;;;;;;;25.98;35.41;99426.55;105517;1271;60607;-77
2022/07/15 06:01:59;;;;;;;7.80;1.10;;;;;;;26.48;34.73;99434.35;105100;1271;73830;-75
2022/07/15 06:04:47;;;;;;;6.00;1.10;;;;;;;26.71;33.92;99423.41;105121;1271;66958;-76
2022/07/15 06:07:36;;;;;;;5.40;0.90;;;;;;;26.37;33.61;99419.66;105294;1271;72608;-79
2022/07/15 06:10:25;;;;;;;6.60;1.10;;;;;;;25.83;34.79;99432.36;105309;1271;60466;-80
2022/07/15 06:13:15;;;;;;;6.90;1.30;;;;;;;26.15;34.29;99427.46;105185;1271;60525;-75
2022/07/15 06:16:06;;;;;;;7.50;1.60;;;;;;;26.19;33.83;99428.97;105571;1273;73882;-76
2022/07/15 06:18:54;;;;;;;6.10;1.10;;;;;;;26.07;33.85;99432.04;104800;1274;69511;-76
2022/07/15 06:21:42;;;;;;;5.30;0.90;;;;;;;26.26;34.00;99424.77;105027;1274;72240;-78
2022/07/15 06:24:30;;;;;;;7.00;1.50;;;;;;;25.45;35.02;99428.20;104978;1274;60494;-76
2022/07/15 06:27:21;;;;;;;5.80;0.90;;;;;;;24.31;37.13;99428.45;105183;1273;61987;-77
2022/07/15 06:30:10;;;;;;;5.60;1.00;;;;;;;23.78;38.47;99431.10;105440;1273;75504;-76
2022/07/15 06:32:58;;;;;;;5.40;1.00;;;;;;;24.49;37.50;99434.30;105421;1274;66704;-76
2022/07/15 06:35:47;;;;;;;5.00;0.90;;;;;;;25.34;36.53;99435.84;105166;1274;73160;-78
2022/07/15 06:38:35;;;;;;;7.10;1.00;;;;;;;26.27;34.85;99432.20;105398;1274;60495;-77
2022/07/15 06:41:24;;;;;;;6.10;0.90;;;;;;;27.01;33.06;99430.29;105779;1273;60469;-77
2022/07/15 06:44:17;;;;;;;4.50;0.80;;;;;;;27.62;32.23;99437.98;105379;1274;73994;-77
2022/07/15 06:47:14;;;;;;;6.20;0.90;;;;;;;27.84;31.80;99447.93;105820;1273;69261;-76
2022/07/15 06:50:04;;;;;;;6.20;1.00;;;;;;;27.83;31.06;99451.91;105678;1274;74334;-78
2022/07/15 06:52:52;;;;;;;6.30;0.90;;;;;;;27.89;31.08;99450.04;105748;1273;60678;-74
2022/07/15 06:55:42;;;;;;;7.30;1.00;;;;;;;27.85;30.75;99446.46;105011;1274;60334;-75
2022/07/15 06:58:30;;;;;;;6.80;1.00;;;;;;;27.71;31.32;99448.60;105006;1271;72543;-73
2022/07/15 07:01:18;;;;;;;7.50;1.30;;;;;;;27.87;31.39;99444.91;105170;1274;69381;-74
2022/07/15 07:04:07;;;;;;;6.50;0.90;;;;;;;28.02;31.07;99449.59;104901;1274;73339;-74
2022/07/15 07:06:55;;;;;;;8.30;1.20;;;;;;;28.11;30.00;99444.95;105018;1273;60549;-76
2022/07/15 07:09:43;;;;;;;8.40;1.10;;;;;;;28.35;29.82;99444.85;105147;1274;60460;-73
2022/07/15 07:12:31;;;;;;;7.60;1.10;;;;;;;28.75;29.07;99453.23;104969;1274;74606;-76
2022/07/15 07:15:21;;;;;;;7.30;1.00;;;;;;;28.77;29.44;99455.06;104983;1271;66536;-77
2022/07/15 07:18:08;;;;;;;7.00;1.80;;;;;;;27.87;29.94;99459.53;105113;1271;71617;-75
2022/07/15 07:20:57;;;;;;;9.30;3.70;;;;;;;26.45;31.72;99462.39;105138;1271;60498;-76
2022/07/15 07:23:45;;;;;;;9.40;3.80;;;;;;;26.35;32.31;99468.59;105166;1270;60406;-77
2022/07/15 07:26:34;;;;;;;6.40;1.00;;;;;;;26.47;31.69;99463.58;105052;1271;74680;-75
2022/07/15 07:29:25;;;;;;;7.10;1.50;;;;;;;26.37;32.39;99462.99;105076;1271;68378;-77
2022/07/15 07:32:13;;;;;;;5.90;1.00;;;;;;;26.76;31.03;99469.12;105103;1271;74244;-74
2022/07/15 07:35:01;;;;;;;5.50;0.80;;;;;;;25.22;31.79;99473.50;105042;1271;60549;-76
2022/07/15 07:37:50;;;;;;;6.10;0.90;;;;;;;23.94;33.74;99479.81;105050;1271;60644;-75
2022/07/15 07:40:38;;;;;;;6.50;0.90;;;;;;;22.63;36.24;99488.71;104995;1271;73944;-75
2022/07/15 07:43:27;;;;;;;6.40;0.90;;;;;;;21.54;38.75;99506.80;105187;1271;66558;-75
2022/07/15 07:46:16;;;;;;;5.90;1.00;;;;;;;20.55;41.16;99511.50;105461;1271;73012;-73
2022/07/15 07:49:05;;;;;;;7.10;1.00;;;;;;;19.66;43.32;99511.69;105163;1271;60551;-73
2022/07/15 07:52:15;;;;;;;5.40;0.90;;;;;;;19.04;45.39;99511.14;105386;1271;60354;-76
2022/07/15 07:55:03;;;;;;;6.70;1.00;;;;;;;18.85;46.58;99517.52;105149;1271;73832;-75
2022/07/15 07:57:56;;;;;;;7.20;1.10;;;;;;;18.79;47.67;99517.73;105115;1271;68370;-77
2022/07/15 08:00:44;;;;;;;8.20;1.30;;;;;;;18.73;48.15;99521.13;104997;1271;74645;-75
2022/07/15 08:03:32;;;;;;;8.40;1.40;;;;;;;18.77;48.51;99522.80;104972;1272;60559;-73
2022/07/15 08:06:22;;;;;;;7.10;1.50;;;;;;;19.31;47.52;99518.98;105060;1271;60396;-77
2022/07/15 08:09:10;;;;;;;5.80;1.20;;;;;;;19.64;46.92;99523.70;104989;1271;74588;-74
2022/07/15 08:11:58;;;;;;;7.30;1.60;;;;;;;20.63;45.14;99519.74;105052;1271;66775;-75
2022/07/15 08:14:49;;;;;;;8.50;1.60;;;;;;;20.81;44.53;99521.16;104988;1271;71917;-76
2022/07/15 08:17:40;;;;;;;9.80;2.30;;;;;;;20.95;44.41;99520.20;105301;1271;60463;-74
2022/07/15 08:20:29;;;;;;;7.70;1.40;;;;;;;21.20;43.99;99520.16;105153;1271;60540;-75
2022/07/15 08:23:21;;;;;;;6.10;1.20;;;;;;;21.00;44.91;99525.88;105050;1271;73810;-75
2022/07/15 08:26:10;;;;;;;8.50;2.10;;;;;;;20.47;46.29;99533.64;105090;1271;66700;-77
2022/07/15 08:28:58;;;;;;;8.80;2.20;;;;;;;20.08;47.80;99542.85;105139;1271;74177;-74
2022/07/15 08:31:52;;;;;;;8.00;1.50;;;;;;;19.58;49.71;99550.74;105023;1271;60745;-74
2022/07/15 08:34:41;;;;;;;9.00;1.40;;;;;;;19.07;51.75;99552.42;105109;1271;60436;-74
2022/07/15 08:37:30;;;;;;;9.20;1.30;;;;;;;18.49;54.33;99561.20;105131;1271;73806;-74
2022/07/15 08:40:18;;;;;;;9.90;1.50;;;;;;;18.04;57.03;99570.08;105111;1271;67115;-76
2022/07/15 08:43:11;;;;;;;8.10;1.30;;;;;;;17.74;58.59;99571.11;105392;1271;74513;-75
2022/07/15 08:46:02;;;;;;;9.00;2.00;;;;;;;17.38;60.54;99576.02;104985;1271;60857;-72
2022/07/15 08:48:54;;;;;;;8.90;1.40;;;;;;;17.15;60.95;99578.00;105306;1271;60427;-74
2022/07/15 08:51:46;;;;;;;9.60;1.40;;;;;;;17.04;62.70;99581.44;105176;1271;75300;-72
2022/07/15 08:54:35;;;;;;;9.50;1.40;;;;;;;16.93;63.58;99580.16;105067;1271;68356;-73
2022/07/15 08:57:23;;;;;;;7.10;1.30;;;;;;;16.88;64.25;99579.05;105035;1271;71404;-76
2022/07/15 09:00:12;;;;;;;8.60;1.40;;;;;;;16.96;64.60;99578.33;105080;1271;60430;-74
2022/07/15 09:03:04;;;;;;;6.20;1.20;;;;;;;17.10;65.26;99580.21;105404;1271;60463;-76
2022/07/15 09:05:52;;;;;;;8.90;1.40;;;;;;;17.27;64.32;99576.34;105647;1271;73833;-73
2022/07/15 09:08:42;;;;;;;7.60;1.50;;;;;;;18.00;62.12;99572.22;105317;1271;65666;-73
2022/07/15 09:11:30;;;;;;;8.10;1.60;;;;;;;19.83;57.29;99564.52;105306;1271;72611;-75
2022/07/15 09:14:19;;;;;;;8.20;1.20;;;;;;;21.27;51.79;99565.41;105164;1271;60575;-75
2022/07/15 09:17:10;;;;;;;12.30;4.00;;;;;;;21.43;51.22;99569.52;105489;1273;60508;-76
2022/07/15 09:20:03;;;;;;;8.60;1.50;;;;;;;20.86;52.24;99573.68;105177;1273;73790;-76
2022/07/15 09:22:55;;;;;;;10.00;1.60;;;;;;;19.99;54.29;99579.34;105226;1273;69974;-75
2022/07/15 09:25:44;;;;;;;7.60;1.60;;;;;;;19.42;57.05;99580.91;105054;1273;74888;-76
2022/07/15 09:28:42;;;;;;;7.70;2.00;;;;;;;19.03;58.21;99580.02;105172;1274;60551;-73
2022/07/15 09:36:01;;;;;;;8.80;1.40;;;;;;;20.08;57.03;99584.99;105422;1273;74016;-75
2022/07/15 09:38:23;;;;;;;8.20;1.20;;;;;;;21.70;53.22;99577.81;105360;1273;67859;-75
2022/07/15 09:41:27;;;;;;;9.60;1.60;;;;;;;21.54;52.47;99586.83;104845;1274;72738;-74
2022/07/15 09:44:21;;;;;;;8.00;1.30;;;;;;;20.97;53.74;99590.73;105411;1273;60495;-74
2022/07/15 09:47:25;;;;;;;7.20;2.20;;;;;;;20.39;55.87;99596.15;104920;1274;60462;-77
2022/07/15 09:50:13;;;;;;;8.20;1.70;;;;;;;19.97;56.04;99593.13;105248;1273;73809;-75
2022/07/15 09:53:16;;;;;;;9.10;1.40;;;;;;;19.45;55.01;99593.27;105048;1274;68010;-75
2022/07/15 09:56:08;;;;;;;9.40;1.70;;;;;;;19.30;56.81;99593.91;105091;1274;72611;-74
2022/07/15 09:58:57;;;;;;;9.40;2.40;;;;;;;19.31;57.12;99598.80;105497;1273;60569;-72
2022/07/15 10:01:47;;;;;;;8.10;1.70;;;;;;;19.58;56.26;99594.55;105281;1274;60440;-75
2022/07/15 10:04:38;;;;;;;7.90;1.40;;;;;;;20.71;53.33;99591.28;104970;1274;73826;-75
2022/07/15 10:07:27;;;;;;;7.40;1.30;;;;;;;21.77;49.61;99585.33;105068;1273;68421;-75
2022/07/15 10:10:17;;;;;;;7.40;1.60;;;;;;;22.01;48.53;99592.92;104989;1273;74213;-74
2022/07/15 10:13:28;;;;;;;8.10;1.40;;;;;;;21.86;47.68;99592.05;105354;1273;60485;-74
2022/07/15 10:17:05;;;;;;;7.70;1.60;;;;;;;21.45;48.05;99597.95;105093;1271;60671;-74
2022/07/15 10:20:25;;;;;;;7.90;1.20;;;;;;;20.87;49.72;99607.14;105064;1271;72635;-74
2022/07/15 10:23:16;;;;;;;6.70;1.30;;;;;;;20.88;50.50;99600.50;105177;1271;66476;-75
2022/07/15 10:27:02;;;;;;;6.30;1.30;;;;;;;20.67;49.95;99604.45;105094;1272;75094;-74
2022/07/15 10:29:56;;;;;;;7.10;1.20;;;;;;;21.69;47.90;99609.11;105192;1271;60415;-77
2022/07/15 10:33:10;;;;;;;7.90;1.60;;;;;;;21.59;47.73;99606.84;105007;1271;60527;-76
2022/07/15 10:36:08;;;;;;;8.60;2.20;;;;;;;21.59;49.29;99613.96;105036;1271;73762;-73
2022/07/15 10:39:05;;;;;;;9.30;3.10;;;;;;;21.01;52.46;99621.92;104910;1272;66775;-76
2022/07/15 10:42:03;;;;;;;7.60;1.50;;;;;;;20.30;54.18;99623.75;105028;1271;71410;-74
2022/07/15 10:45:05;;;;;;;7.40;1.50;;;;;;;19.69;56.16;99624.95;105416;1271;60481;-74
2022/07/15 10:48:32;;;;;;;7.40;1.70;;;;;;;19.44;57.25;99621.54;105372;1271;60647;-76
2022/07/15 10:51:35;;;;;;;9.30;1.70;;;;;;;20.33;55.91;99626.77;104638;1279;73787;-75
2022/07/15 10:54:26;;;;;;;7.80;1.40;;;;;;;21.84;52.33;99616.92;104516;1279;66854;-75
2022/07/15 10:57:16;;;;;;;6.80;1.30;;;;;;;23.60;46.88;99608.00;104622;1279;74492;-75
2022/07/15 11:00:05;;;;;;;8.40;1.40;;;;;;;24.47;45.22;99609.55;104637;1279;60569;-75
2022/07/15 11:03:10;;;;;;;7.60;1.20;;;;;;;25.35;42.64;99604.17;104819;1279;60415;-76
2022/07/15 11:05:58;;;;;;;6.80;1.40;;;;;;;26.58;38.87;99603.74;104459;1279;74280;-78
2022/07/15 11:08:55;;;;;;;7.50;1.20;;;;;;;27.28;37.24;99602.10;104472;1279;68395;-75
2022/07/15 11:11:43;;;;;;;6.80;1.00;;;;;;;27.10;37.32;99609.91;104460;1279;73960;-78
2022/07/15 11:15:11;;;;;;;6.60;1.10;;;;;;;25.91;38.61;99607.23;104430;1279;60513;-76
2022/07/15 11:18:00;;;;;;;7.80;1.10;;;;;;;24.17;41.18;99615.30;104681;1279;60617;-77
2022/07/15 11:20:57;;;;;;;6.90;1.20;;;;;;;23.05;43.81;99616.14;104524;1279;74299;-76
2022/07/15 11:23:47;;;;;;;6.60;1.00;;;;;;;22.47;45.44;99624.30;104978;1272;67753;-76
2022/07/15 11:26:48;;;;;;;8.10;1.30;;;;;;;21.98;46.03;99628.46;104968;1271;74375;-78
2022/07/15 11:29:47;;;;;;;7.30;1.50;;;;;;;21.82;45.69;99631.55;104961;1271;60462;-77
2022/07/15 11:32:35;;;;;;;7.80;1.20;;;;;;;21.88;45.51;99630.35;105140;1271;60472;-78
2022/07/15 11:35:25;;;;;;;7.20;1.10;;;;;;;22.16;44.10;99621.99;105036;1272;75350;-77
2022/07/15 11:38:14;;;;;;;7.00;1.30;;;;;;;21.86;44.02;99635.06;105215;1271;69972;-77
2022/07/15 11:44:32;;;;;;;8.10;1.10;;;;;;;21.62;45.15;99625.11;105113;1271;60474;-79
2022/07/15 11:47:22;;;;;;;6.30;1.00;;;;;;;21.51;45.78;99623.67;105301;1271;61753;-79
2022/07/15 11:50:11;;;;;;;8.80;1.20;;;;;;;21.40;44.66;99619.85;105080;1271;71599;-78
2022/07/15 11:53:00;;;;;;;6.50;1.30;;;;;;;21.23;44.54;99625.40;105487;1271;67841;-77
2022/07/15 11:55:54;;;;;;;6.10;1.00;;;;;;;20.90;44.46;99629.48;105051;1271;72752;-77
2022/07/15 11:58:53;;;;;;;6.90;1.00;;;;;;;20.62;45.09;99631.77;105283;1271;60478;-78
2022/07/15 12:01:41;;;;;;;5.70;0.90;;;;;;;20.38;46.58;99650.05;105208;1271;60401;-76
2022/07/15 12:04:30;;;;;;;7.10;1.30;;;;;;;20.32;46.86;99650.63;104982;1273;72570;-76
2022/07/15 12:07:18;;;;;;;7.70;1.10;;;;;;;20.25;47.56;99643.83;105284;1272;68377;-75
2022/07/15 12:10:07;;;;;;;7.10;1.00;;;;;;;20.23;48.55;99642.80;105161;1271;73297;-78
2022/07/15 12:13:01;;;;;;;10.20;1.20;;;;;;;20.32;49.02;99641.11;105156;1271;60455;-77
2022/07/15 12:15:49;;;;;;;7.70;1.20;;;;;;;20.25;47.58;99637.09;105435;1271;60460;-78
2022/07/15 12:18:38;;;;;;;7.70;1.20;;;;;;;20.13;46.86;99629.61;105076;1271;75396;-76
2022/07/15 12:21:28;;;;;;;7.10;1.20;;;;;;;19.81;47.44;99643.43;105156;1271;69512;-78
2022/07/15 12:24:25;;;;;;;6.90;1.40;;;;;;;19.87;47.72;99641.17;105146;1271;73031;-77
2022/07/15 12:27:14;;;;;;;6.80;1.30;;;;;;;20.08;48.19;99639.40;105070;1271;60014;-77
2022/07/15 12:30:05;;;;;;;7.30;1.30;;;;;;;20.24;47.73;99639.00;105110;1271;61836;-75
2022/07/15 12:33:21;;;;;;;8.70;1.50;;;;;;;20.28;46.74;99637.09;105012;1271;74009;-77
2022/07/15 12:36:22;;;;;;;7.30;1.00;;;;;;;20.09;45.89;99653.71;105379;1271;69134;-76
2022/07/15 12:39:15;;;;;;;7.50;1.20;;;;;;;20.01;45.80;99649.44;105330;1271;71307;-78
2022/07/15 12:42:09;;;;;;;5.90;1.20;;;;;;;20.03;46.01;99654.52;105166;1271;60568;-78
2022/07/15 12:45:21;;;;;;;7.20;1.20;;;;;;;19.97;45.97;99650.64;105059;1271;60428;-76
2022/07/15 12:48:14;;;;;;;8.10;1.20;;;;;;;19.94;45.45;99655.70;105314;1271;73083;-77
2022/07/15 12:51:03;;;;;;;5.80;1.00;;;;;;;19.88;45.46;99655.17;105111;1271;68527;-76
2022/07/15 12:53:52;;;;;;;8.30;1.40;;;;;;;19.92;45.52;99653.45;105353;1271;72135;-76
2022/07/15 12:56:51;;;;;;;6.90;1.20;;;;;;;20.01;45.86;99659.41;105130;1271;60528;-77
2022/07/15 12:59:54;;;;;;;8.60;1.20;;;;;;;20.02;46.29;99659.21;105424;1271;60408;-75
2022/07/15 13:03:19;;;;;;;7.30;1.20;;;;;;;20.05;45.66;99659.58;105342;1272;75441;-78
2022/07/15 13:06:14;;;;;;;6.80;1.30;;;;;;;19.85;45.09;99662.46;104530;1279;69430;-76
2022/07/15 13:09:03;;;;;;;5.60;1.00;;;;;;;19.80;45.35;99667.58;104903;1279;71711;-77
2022/07/15 13:12:00;;;;;;;7.80;1.60;;;;;;;19.85;45.01;99662.43;104515;1279;60569;-77
2022/07/15 13:14:48;;;;;;;7.70;1.00;;;;;;;19.95;45.59;99666.07;104510;1279;60428;-76
2022/07/15 13:17:36;;;;;;;7.90;1.30;;;;;;;19.90;45.79;99664.73;104781;1279;72745;-79
2022/07/15 13:20:26;;;;;;;9.80;1.60;;;;;;;19.78;46.36;99681.27;104526;1279;67123;-77
2022/07/15 13:23:14;;;;;;;8.70;1.40;;;;;;;19.78;45.95;99679.27;104797;1279;71216;-77
2022/07/15 13:26:02;;;;;;;7.30;1.40;;;;;;;19.98;45.37;99680.20;104729;1279;60500;-77
2022/07/15 13:28:50;;;;;;;6.60;1.10;;;;;;;20.09;45.76;99681.10;104546;1279;60707;-75
2022/07/15 13:31:38;;;;;;;8.00;1.40;;;;;;;20.02;45.91;99688.05;104544;1279;74481;-77